Time;durP1;ratioP1;P1;durP2;ratioP2;P2;SDS_P1;SDS_P2;PMS_P1;PMS_P2;Temp;Humidity;BMP_temperature;BMP_pressure;BME280_temperature;BME280_humidity;BME280_pressure;Samples;Min_cycle;Max_cycle;Signal;HPM_P1;HPM_P2
2024/03/16 00:01:54;;;;;;;0.57;0.10;;;11.30;81.90;;;;;;5048528;28;20060;-63
2024/03/16 00:04:19;;;;;;;1.10;0.10;;;11.30;82.00;;;;;;5050914;28;20037;-62
2024/03/16 00:06:45;;;;;;;0.55;0.10;;;11.30;82.10;;;;;;5049877;28;20515;-62
2024/03/16 00:09:10;;;;;;;0.22;0.20;;;11.30;82.30;;;;;;5049366;28;20272;-61
2024/03/16 00:11:36;;;;;;;0.60;0.05;;;11.30;82.40;;;;;;5049502;28;20033;-60
2024/03/16 00:14:02;;;;;;;0.30;0.08;;;11.30;82.40;;;;;;5049071;28;20040;-63
2024/03/16 00:16:30;;;;;;;0.17;0.08;;;11.30;82.50;;;;;;5049354;28;20058;-62
2024/03/16 00:18:56;;;;;;;0.63;0.10;;;11.30;82.60;;;;;;5049514;28;20029;-62
2024/03/16 00:21:21;;;;;;;0.10;0.08;;;11.30;82.60;;;;;;5047127;28;20037;-63
2024/03/16 00:23:47;;;;;;;0.47;0.10;;;11.20;82.70;;;;;;5048891;28;20512;-62
2024/03/16 00:26:13;;;;;;;1.23;0.10;;;11.20;82.40;;;;;;5049595;28;20029;-62
2024/03/16 00:28:39;;;;;;;0.55;0.10;;;11.20;82.40;;;;;;5044308;28;20431;-62
2024/03/16 00:31:05;;;;;;;1.17;0.10;;;11.20;82.60;;;;;;5049276;28;20033;-61
2024/03/16 00:33:31;;;;;;;0.73;0.10;;;11.20;82.60;;;;;;5050038;28;20064;-62
2024/03/16 00:35:56;;;;;;;1.85;0.00;;;11.20;82.60;;;;;;5048306;28;20045;-63
2024/03/16 00:38:23;;;;;;;0.05;0.03;;;11.10;82.50;;;;;;5047330;28;20079;-60
2024/03/16 00:40:49;;;;;;;1.35;0.10;;;11.10;82.60;;;;;;5045345;28;20036;-61
2024/03/16 00:43:18;;;;;;;0.10;0.10;;;11.10;82.60;;;;;;5047965;28;20025;-62
2024/03/16 00:45:44;;;;;;;0.80;0.15;;;11.00;82.60;;;;;;5049387;28;20460;-61
2024/03/16 00:48:10;;;;;;;0.32;0.10;;;11.00;83.60;;;;;;5047061;28;20039;-62
2024/03/16 00:50:36;;;;;;;0.30;0.10;;;11.00;82.80;;;;;;5049050;28;20518;-60
2024/03/16 00:53:02;;;;;;;0.15;0.10;;;10.90;82.90;;;;;;5048324;28;20040;-60
2024/03/16 00:55:28;;;;;;;0.08;0.08;;;10.90;82.90;;;;;;5047899;28;20523;-62
2024/03/16 00:57:53;;;;;;;0.13;0.10;;;10.90;83.10;;;;;;5046922;28;20479;-60
2024/03/16 01:00:19;;;;;;;0.30;0.10;;;10.80;83.20;;;;;;5047609;28;20037;-61
2024/03/16 01:02:44;;;;;;;0.40;0.15;;;10.60;83.30;;;;;;5048378;28;20025;-61
2024/03/16 01:05:11;;;;;;;0.50;0.10;;;10.70;83.60;;;;;;5048673;28;20041;-62
2024/03/16 01:07:37;;;;;;;0.57;0.20;;;10.70;83.80;;;;;;5046992;28;20044;-61
2024/03/16 01:10:02;;;;;;;1.88;0.20;;;10.60;84.20;;;;;;5046958;28;20025;-62
2024/03/16 01:12:28;;;;;;;0.10;0.10;;;10.60;84.50;;;;;;5046272;28;20112;-62
2024/03/16 01:14:53;;;;;;;0.28;0.20;;;10.60;84.40;;;;;;5047430;28;20036;-61
2024/03/16 01:17:20;;;;;;;0.20;0.20;;;10.50;84.80;;;;;;5047925;28;20025;-60
2024/03/16 01:19:46;;;;;;;0.40;0.20;;;10.40;84.80;;;;;;5037222;28;20398;-63
2024/03/16 01:22:12;;;;;;;0.38;0.30;;;10.40;85.10;;;;;;5043199;28;20040;-63
2024/03/16 01:24:37;;;;;;;0.30;0.10;;;10.30;85.20;;;;;;5042545;28;20035;-62
2024/03/16 01:27:03;;;;;;;0.40;0.20;;;10.40;85.30;;;;;;5045394;28;20044;-61
2024/03/16 01:29:29;;;;;;;0.85;0.38;;;10.30;85.30;;;;;;5048250;28;20426;-62
2024/03/16 01:31:54;;;;;;;0.85;0.20;;;10.30;85.30;;;;;;5045932;28;20033;-63
2024/03/16 01:34:20;;;;;;;1.08;0.20;;;10.30;85.70;;;;;;5049375;28;20037;-62
2024/03/16 01:36:46;;;;;;;0.60;0.10;;;10.20;85.90;;;;;;5044457;28;20045;-62
2024/03/16 01:39:12;;;;;;;0.30;0.20;;;10.20;86.00;;;;;;5045171;28;20555;-62
2024/03/16 01:41:40;;;;;;;0.20;0.20;;;10.20;86.10;;;;;;5049285;28;20044;-62
2024/03/16 01:44:14;;;;;;;0.45;0.10;;;10.10;86.20;;;;;;5048511;28;20029;-63
2024/03/16 01:46:41;;;;;;;0.10;0.10;;;10.20;86.90;;;;;;5049490;28;20048;-62
2024/03/16 01:49:08;;;;;;;0.65;0.20;;;10.10;86.20;;;;;;5048682;28;20107;-62
2024/03/16 01:51:37;;;;;;;1.05;0.20;;;10.10;86.60;;;;;;5048587;28;20040;-62
2024/03/16 01:54:03;;;;;;;0.20;0.20;;;10.10;86.40;;;;;;5049701;28;20086;-63
2024/03/16 01:56:29;;;;;;;0.30;0.30;;;10.10;86.60;;;;;;5049070;28;20029;-62
2024/03/16 01:58:55;;;;;;;0.60;0.45;;;10.10;86.90;;;;;;5048827;28;20064;-61
2024/03/16 02:01:20;;;;;;;0.20;0.20;;;10.10;87.10;;;;;;5049236;28;20377;-62
2024/03/16 02:03:46;;;;;;;0.35;0.30;;;10.10;87.10;;;;;;5048405;28;20377;-62
2024/03/16 02:06:13;;;;;;;1.30;0.35;;;10.10;87.10;;;;;;5049386;28;20037;-60
2024/03/16 02:08:39;;;;;;;0.30;0.30;;;10.10;87.30;;;;;;5048099;28;20037;-60
2024/03/16 02:11:04;;;;;;;1.15;0.40;;;10.00;87.10;;;;;;5048988;28;20032;-62
2024/03/16 02:13:30;;;;;;;0.50;0.30;;;10.00;87.00;;;;;;5048342;28;20120;-62
2024/03/16 02:15:56;;;;;;;2.70;0.50;;;10.00;87.30;;;;;;5040754;28;20120;-61
2024/03/16 02:18:21;;;;;;;0.40;0.20;;;10.00;87.00;;;;;;5044470;28;20049;-60
2024/03/16 02:20:47;;;;;;;0.28;0.28;;;10.00;87.20;;;;;;5044253;28;20033;-62
2024/03/16 02:23:13;;;;;;;0.30;0.30;;;10.00;87.30;;;;;;5045478;28;20119;-62
2024/03/16 02:25:39;;;;;;;0.30;0.28;;;10.00;87.30;;;;;;5044716;28;20064;-62
2024/03/16 02:28:08;;;;;;;0.40;0.20;;;10.00;87.30;;;;;;5045639;28;20029;-61
2024/03/16 02:30:33;;;;;;;1.10;0.40;;;10.00;87.00;;;;;;5038709;28;20504;-63
2024/03/16 02:32:59;;;;;;;0.63;0.43;;;10.00;87.30;;;;;;5044819;28;20040;-61
2024/03/16 02:35:25;;;;;;;0.40;0.30;;;10.00;87.30;;;;;;5043071;28;20033;-61
2024/03/16 02:37:50;;;;;;;0.20;0.20;;;10.00;87.30;;;;;;5041516;28;20039;-62
2024/03/16 02:40:17;;;;;;;0.82;0.22;;;10.00;87.40;;;;;;5037710;28;20401;-62
2024/03/16 02:42:43;;;;;;;0.20;0.20;;;10.00;87.60;;;;;;5043910;28;20043;-62
2024/03/16 02:45:10;;;;;;;0.82;0.30;;;10.00;87.60;;;;;;5046101;28;20032;-63
2024/03/16 02:47:36;;;;;;;1.05;0.38;;;10.00;87.80;;;;;;5051506;28;20132;-63
2024/03/16 02:50:03;;;;;;;0.88;0.20;;;10.00;87.80;;;;;;5051309;28;20069;-63
2024/03/16 02:52:31;;;;;;;0.55;0.30;;;10.00;87.60;;;;;;5049072;28;20559;-61
2024/03/16 02:54:57;;;;;;;0.30;0.22;;;10.00;87.50;;;;;;5052307;28;20083;-63
2024/03/16 02:57:24;;;;;;;0.40;0.30;;;10.00;87.50;;;;;;5052400;28;20029;-63
2024/03/16 02:59:49;;;;;;;0.30;0.30;;;10.00;87.40;;;;;;5050291;28;20052;-61
2024/03/16 03:02:16;;;;;;;0.30;0.30;;;10.00;87.40;;;;;;5045936;28;20423;-63
2024/03/16 03:04:41;;;;;;;1.75;0.30;;;9.90;87.60;;;;;;5047418;28;20393;-63
2024/03/16 03:07:07;;;;;;;0.93;0.30;;;10.00;87.60;;;;;;5048912;28;20308;-62
2024/03/16 03:09:33;;;;;;;2.65;0.30;;;9.90;87.90;;;;;;5048377;28;20072;-63
2024/03/16 03:11:59;;;;;;;0.30;0.30;;;9.90;87.90;;;;;;5049557;28;20047;-62
2024/03/16 03:14:24;;;;;;;0.93;0.32;;;9.90;87.90;;;;;;5048357;28;20033;-62
2024/03/16 03:16:50;;;;;;;0.47;0.32;;;9.80;87.90;;;;;;5044688;28;20053;-62
2024/03/16 03:19:16;;;;;;;0.20;0.20;;;9.80;88.00;;;;;;5041484;28;20040;-61
2024/03/16 03:21:41;;;;;;;1.17;0.20;;;9.80;88.00;;;;;;5045851;28;20044;-62
2024/03/16 03:24:07;;;;;;;0.68;0.30;;;9.80;88.00;;;;;;5047659;28;20504;-62
2024/03/16 03:26:33;;;;;;;0.20;0.20;;;9.70;87.90;;;;;;5045096;28;20114;-62
2024/03/16 03:28:59;;;;;;;0.25;0.20;;;9.70;87.80;;;;;;5045333;28;20113;-62
2024/03/16 03:31:25;;;;;;;0.60;0.20;;;9.70;88.00;;;;;;5041035;28;20049;-60
2024/03/16 03:33:51;;;;;;;0.10;0.10;;;9.70;88.10;;;;;;5046145;28;20411;-62
2024/03/16 03:36:17;;;;;;;0.20;0.20;;;9.60;88.20;;;;;;5048442;28;20116;-62
2024/03/16 03:38:43;;;;;;;0.30;0.20;;;9.60;88.40;;;;;;5050278;28;20091;-63
2024/03/16 03:41:09;;;;;;;0.20;0.15;;;9.60;88.40;;;;;;5047440;28;20111;-60
2024/03/16 03:43:37;;;;;;;0.80;0.20;;;9.60;88.50;;;;;;5044093;28;20112;-63
2024/03/16 03:46:04;;;;;;;0.17;0.17;;;9.50;88.50;;;;;;5045744;28;20037;-62
2024/03/16 03:48:40;;;;;;;0.43;0.20;;;9.50;88.60;;;;;;5045228;28;20533;-62
2024/03/16 03:51:06;;;;;;;0.20;0.20;;;9.50;88.80;;;;;;5045425;28;20045;-62
2024/03/16 03:53:32;;;;;;;0.70;0.30;;;9.50;88.90;;;;;;5050164;28;20455;-63
2024/03/16 03:55:59;;;;;;;1.00;0.17;;;9.50;89.00;;;;;;5048465;28;20041;-62
2024/03/16 03:58:25;;;;;;;0.20;0.20;;;9.50;89.20;;;;;;5041271;28;20574;-62
2024/03/16 04:00:51;;;;;;;0.20;0.20;;;9.50;89.10;;;;;;5041766;28;20037;-62
2024/03/16 04:03:16;;;;;;;0.52;0.30;;;9.50;89.20;;;;;;5044428;28;20025;-63
2024/03/16 04:05:45;;;;;;;0.20;0.20;;;9.50;89.40;;;;;;5047055;28;20037;-60
2024/03/16 04:08:11;;;;;;;0.32;0.20;;;9.50;89.50;;;;;;5047111;28;20041;-63
2024/03/16 04:10:37;;;;;;;0.20;0.20;;;9.50;89.40;;;;;;5043999;28;20036;-61
2024/03/16 04:13:03;;;;;;;0.38;0.20;;;9.50;89.50;;;;;;5045945;28;20033;-63
2024/03/16 04:15:29;;;;;;;0.52;0.15;;;9.60;89.50;;;;;;5046832;28;20067;-62
2024/03/16 04:17:55;;;;;;;0.10;0.10;;;9.60;89.60;;;;;;5047295;28;20073;-61
2024/03/16 04:20:21;;;;;;;0.68;0.10;;;9.60;89.50;;;;;;5042935;28;20773;-61
2024/03/16 04:22:47;;;;;;;0.30;0.20;;;9.60;89.30;;;;;;5047886;28;20033;-62
2024/03/16 04:25:13;;;;;;;0.20;0.20;;;9.60;89.10;;;;;;5045418;28;20116;-62
2024/03/16 04:27:40;;;;;;;0.10;0.10;;;9.60;89.30;;;;;;5036577;28;20067;-62
2024/03/16 04:30:06;;;;;;;0.10;0.10;;;9.60;89.40;;;;;;5045712;28;20040;-62
2024/03/16 04:32:33;;;;;;;0.20;0.20;;;9.60;89.30;;;;;;5045212;28;20146;-60
2024/03/16 04:34:59;;;;;;;0.10;0.10;;;9.50;89.30;;;;;;5042710;28;20404;-62
2024/03/16 04:37:25;;;;;;;0.10;0.10;;;9.60;89.30;;;;;;5049843;28;20029;-61
2024/03/16 04:39:51;;;;;;;0.70;0.30;;;9.50;89.30;;;;;;5047043;28;20037;-62
2024/03/16 04:42:17;;;;;;;0.20;0.10;;;9.50;89.30;;;;;;5047131;28;20400;-61
2024/03/16 04:44:43;;;;;;;0.30;0.10;;;9.50;89.40;;;;;;5041708;28;20516;-60
2024/03/16 04:47:09;;;;;;;0.20;0.20;;;9.50;89.60;;;;;;5042459;28;20043;-62
2024/03/16 04:49:34;;;;;;;0.10;0.10;;;9.50;89.50;;;;;;5048684;28;20029;-61
2024/03/16 04:52:00;;;;;;;0.20;0.10;;;9.50;89.70;;;;;;5048973;28;20131;-62
2024/03/16 04:54:26;;;;;;;0.55;0.20;;;9.50;89.70;;;;;;5043773;28;20037;-62
2024/03/16 04:56:52;;;;;;;0.30;0.30;;;9.50;89.70;;;;;;5041967;28;20140;-62
2024/03/16 04:59:17;;;;;;;1.88;0.63;;;9.60;89.80;;;;;;5045603;28;20056;-62
2024/03/16 05:01:43;;;;;;;1.02;0.90;;;9.60;90.30;;;;;;5046132;28;20048;-61
2024/03/16 05:04:09;;;;;;;0.55;0.40;;;9.60;89.80;;;;;;5046929;28;20132;-61
2024/03/16 05:06:34;;;;;;;0.25;0.25;;;9.60;89.90;;;;;;5044553;28;20123;-60
2024/03/16 05:09:06;;;;;;;0.20;0.20;;;9.60;89.90;;;;;;5044577;28;20512;-62
2024/03/16 05:11:32;;;;;;;0.90;0.90;;;9.70;89.90;;;;;;5042195;28;20123;-62
2024/03/16 05:13:59;;;;;;;0.43;0.30;;;9.70;89.80;;;;;;5046410;28;20600;-61
2024/03/16 05:16:25;;;;;;;0.57;0.30;;;9.60;89.70;;;;;;5042044;28;20025;-62
2024/03/16 05:18:51;;;;;;;0.40;0.40;;;9.70;89.60;;;;;;5040758;28;20092;-63
2024/03/16 05:21:16;;;;;;;0.60;0.50;;;9.70;89.70;;;;;;5047945;28;20033;-61
2024/03/16 05:23:45;;;;;;;0.85;0.43;;;9.70;89.70;;;;;;5041320;28;20120;-62
2024/03/16 05:26:11;;;;;;;0.25;0.22;;;9.70;89.80;;;;;;5045541;28;20087;-60
2024/03/16 05:28:38;;;;;;;1.02;0.22;;;9.70;89.80;;;;;;5046817;28;20411;-62
2024/03/16 05:31:04;;;;;;;0.82;0.40;;;9.70;89.80;;;;;;5046477;28;20516;-62
2024/03/16 05:33:30;;;;;;;0.60;0.40;;;9.80;89.80;;;;;;5048181;28;20047;-61
2024/03/16 05:35:56;;;;;;;0.50;0.40;;;9.80;89.80;;;;;;5045728;28;20162;-62
2024/03/16 05:38:23;;;;;;;0.85;0.47;;;9.80;89.60;;;;;;5046715;28;20511;-62
2024/03/16 05:40:49;;;;;;;1.95;0.40;;;9.90;89.50;;;;;;5042516;28;20519;-62
2024/03/16 05:43:14;;;;;;;0.82;0.30;;;9.80;89.30;;;;;;5047083;28;20025;-62
2024/03/16 05:45:40;;;;;;;0.57;0.50;;;9.90;89.30;;;;;;5041231;28;20040;-63
2024/03/16 05:48:06;;;;;;;1.05;0.47;;;9.80;89.20;;;;;;5043426;28;20412;-61
2024/03/16 05:50:32;;;;;;;0.77;0.50;;;9.90;89.30;;;;;;5043876;28;20041;-61
2024/03/16 05:52:57;;;;;;;1.90;0.50;;;9.90;89.20;;;;;;5040638;28;20044;-60
2024/03/16 05:55:23;;;;;;;0.98;0.60;;;9.90;89.20;;;;;;5046463;28;20033;-62
2024/03/16 05:57:48;;;;;;;0.73;0.60;;;9.90;89.10;;;;;;5038715;28;20068;-62
2024/03/16 06:00:14;;;;;;;1.20;0.50;;;9.90;89.00;;;;;;5046479;28;20025;-62
2024/03/16 06:02:40;;;;;;;0.80;0.50;;;9.90;89.00;;;;;;5041006;28;20117;-61
2024/03/16 06:05:07;;;;;;;0.50;0.50;;;9.90;88.90;;;;;;5047894;28;20028;-63
2024/03/16 06:07:33;;;;;;;1.35;0.50;;;9.90;88.90;;;;;;5043097;28;20618;-61
2024/03/16 06:09:58;;;;;;;0.95;0.50;;;9.90;88.90;;;;;;5046810;28;20025;-62
2024/03/16 06:12:27;;;;;;;0.95;0.47;;;9.90;89.00;;;;;;5047583;28;20408;-62
2024/03/16 06:14:53;;;;;;;1.38;0.50;;;9.90;89.10;;;;;;5048539;28;20044;-63
2024/03/16 06:17:19;;;;;;;0.60;0.50;;;9.90;89.20;;;;;;5049470;28;20381;-62
2024/03/16 06:19:44;;;;;;;1.13;0.75;;;9.90;89.40;;;;;;5049148;28;20040;-60
2024/03/16 06:22:10;;;;;;;1.90;0.80;;;9.90;89.50;;;;;;5052870;28;20216;-59
2024/03/16 06:24:35;;;;;;;1.77;0.80;;;9.90;89.70;;;;;;5052354;28;20040;-61
2024/03/16 06:27:05;;;;;;;0.82;0.60;;;10.00;89.90;;;;;;5052879;28;20040;-61
2024/03/16 06:29:34;;;;;;;0.93;0.70;;;10.00;90.00;;;;;;5052934;28;20511;-63
2024/03/16 06:32:06;;;;;;;0.60;0.60;;;10.00;90.10;;;;;;5051970;28;20033;-63
2024/03/16 06:34:35;;;;;;;1.02;0.75;;;10.00;90.00;;;;;;5035469;28;20030;-62
2024/03/16 06:37:01;;;;;;;0.70;0.60;;;10.10;90.00;;;;;;5039832;28;20072;-62
2024/03/16 06:39:27;;;;;;;1.27;0.70;;;10.10;90.10;;;;;;5037621;28;20068;-63
2024/03/16 06:41:53;;;;;;;0.93;0.82;;;10.10;90.20;;;;;;5046046;28;20048;-62
2024/03/16 06:44:19;;;;;;;2.95;0.88;;;10.20;90.30;;;;;;5045523;28;20033;-63
2024/03/16 06:46:44;;;;;;;1.45;0.80;;;10.20;90.30;;;;;;5043162;28;20033;-63
2024/03/16 06:49:10;;;;;;;2.15;0.90;;;10.30;90.40;;;;;;5042481;28;20029;-62
2024/03/16 06:51:36;;;;;;;1.35;0.90;;;10.30;90.40;;;;;;5046239;28;20492;-63
2024/03/16 06:54:01;;;;;;;2.33;1.00;;;10.40;90.40;;;;;;5045349;28;20120;-61
2024/03/16 06:56:27;;;;;;;2.65;0.70;;;10.40;90.30;;;;;;5042113;28;20041;-62
2024/03/16 06:58:52;;;;;;;1.27;1.00;;;10.50;90.40;;;;;;5038337;28;20034;-63
2024/03/16 07:01:18;;;;;;;2.88;1.00;;;10.60;90.40;;;;;;5044373;28;20040;-60
2024/03/16 07:03:44;;;;;;;2.30;1.10;;;10.60;90.30;;;;;;5046270;28;20067;-62
2024/03/16 07:06:09;;;;;;;1.20;1.00;;;10.70;90.40;;;;;;5038866;28;20034;-61
2024/03/16 07:08:38;;;;;;;1.58;1.30;;;10.70;90.30;;;;;;5043292;28;20030;-62
2024/03/16 07:11:05;;;;;;;1.30;1.20;;;10.80;90.30;;;;;;5043929;28;20030;-63
2024/03/16 07:13:35;;;;;;;3.47;1.17;;;10.80;90.30;;;;;;5045619;28;20045;-63
2024/03/16 07:16:00;;;;;;;1.70;1.30;;;10.80;90.30;;;;;;5037220;28;20048;-62
2024/03/16 07:18:26;;;;;;;1.67;1.20;;;10.90;90.30;;;;;;5046968;28;20059;-63
2024/03/16 07:20:52;;;;;;;2.00;1.20;;;10.90;90.20;;;;;;5048633;28;20056;-62
2024/03/16 07:23:18;;;;;;;1.95;1.40;;;10.90;90.20;;;;;;5041830;28;20056;-62
2024/03/16 07:25:49;;;;;;;1.63;1.15;;;11.00;90.60;;;;;;5038649;28;20028;-63
2024/03/16 07:28:15;;;;;;;3.72;1.52;;;11.00;90.20;;;;;;5043121;28;20098;-61
2024/03/16 07:30:41;;;;;;;2.70;1.30;;;11.00;90.10;;;;;;5043205;28;20389;-61
2024/03/16 07:33:06;;;;;;;2.05;1.25;;;11.00;90.10;;;;;;5049704;28;20037;-63
2024/03/16 07:35:32;;;;;;;1.73;1.25;;;11.00;90.10;;;;;;5042864;28;20067;-61
2024/03/16 07:37:58;;;;;;;1.55;1.05;;;11.10;90.20;;;;;;5047565;28;20037;-62
2024/03/16 07:40:23;;;;;;;1.80;1.15;;;11.10;90.20;;;;;;5032387;28;20099;-62
2024/03/16 07:42:50;;;;;;;2.10;1.17;;;11.20;90.30;;;;;;5047808;28;20432;-62
2024/03/16 07:45:16;;;;;;;3.13;1.00;;;11.20;90.30;;;;;;5040576;28;20335;-63
2024/03/16 07:47:41;;;;;;;1.52;0.98;;;11.20;90.20;;;;;;5042164;28;20061;-62
2024/03/16 07:50:07;;;;;;;2.85;1.50;;;11.30;90.20;;;;;;5039768;28;20159;-62
2024/03/16 07:52:36;;;;;;;1.13;1.02;;;11.30;90.20;;;;;;5048311;28;20059;-62
2024/03/16 07:55:06;;;;;;;1.20;0.90;;;11.40;90.10;;;;;;5040512;28;20292;-61
2024/03/16 07:57:32;;;;;;;2.70;1.30;;;11.40;90.00;;;;;;5038528;28;20525;-62
2024/03/16 07:59:57;;;;;;;1.98;1.08;;;11.50;90.10;;;;;;5044566;28;20133;-62
2024/03/16 08:02:23;;;;;;;3.97;1.02;;;11.50;90.00;;;;;;5043968;28;20439;-62
2024/03/16 08:04:48;;;;;;;5.38;1.13;;;11.60;90.00;;;;;;5047493;28;20045;-63
2024/03/16 08:07:14;;;;;;;1.88;0.85;;;11.60;90.00;;;;;;5048489;28;20566;-62
2024/03/16 08:09:40;;;;;;;2.28;1.08;;;11.70;90.00;;;;;;5048883;28;20120;-62
2024/03/16 08:12:05;;;;;;;2.65;1.27;;;11.70;90.00;;;;;;5045457;28;20029;-63
2024/03/16 08:14:37;;;;;;;3.03;0.90;;;11.80;90.00;;;;;;5042083;28;20041;-62
2024/03/16 08:17:06;;;;;;;2.47;0.80;;;11.80;89.80;;;;;;5038955;28;20412;-63
2024/03/16 08:19:32;;;;;;;2.42;0.93;;;11.80;89.60;;;;;;5038178;28;20512;-63
2024/03/16 08:21:58;;;;;;;1.52;0.98;;;11.90;89.60;;;;;;5048180;28;20523;-63
2024/03/16 08:24:23;;;;;;;3.60;1.00;;;11.90;89.50;;;;;;5044930;28;20032;-63
2024/03/16 08:26:49;;;;;;;1.80;0.82;;;12.00;89.30;;;;;;5047986;28;20514;-63
2024/03/16 08:29:14;;;;;;;1.63;0.63;;;12.00;89.30;;;;;;5048029;28;20029;-61
2024/03/16 08:31:40;;;;;;;2.45;1.10;;;12.00;89.30;;;;;;5049420;28;20044;-63
2024/03/16 08:34:05;;;;;;;3.47;1.00;;;12.10;89.50;;;;;;5051075;28;20033;-63
2024/03/16 08:36:31;;;;;;;1.90;0.70;;;12.10;89.20;;;;;;5049321;28;20033;-63
2024/03/16 08:38:56;;;;;;;2.60;0.70;;;12.20;88.90;;;;;;5049819;28;20051;-63
2024/03/16 08:41:22;;;;;;;2.33;0.80;;;12.30;88.70;;;;;;5050767;28;21297;-62
2024/03/16 08:43:48;;;;;;;2.22;0.70;;;12.30;88.60;;;;;;5046044;28;20037;-61
2024/03/16 08:46:14;;;;;;;1.77;0.60;;;12.40;88.50;;;;;;5046980;28;20619;-63
2024/03/16 08:48:40;;;;;;;0.77;0.57;;;12.50;88.20;;;;;;5048986;28;20037;-63
2024/03/16 08:51:05;;;;;;;1.15;0.50;;;12.50;87.80;;;;;;5049719;28;20404;-63
2024/03/16 08:53:31;;;;;;;2.58;0.80;;;12.50;87.60;;;;;;5050473;28;20033;-63
2024/03/16 08:55:58;;;;;;;3.53;0.63;;;12.60;87.40;;;;;;5043337;28;20182;-63
2024/03/16 08:58:27;;;;;;;1.35;0.60;;;12.60;87.20;;;;;;5037017;28;20558;-62
2024/03/16 09:00:53;;;;;;;0.80;0.57;;;12.60;87.00;;;;;;5038684;28;20029;-63
2024/03/16 09:03:19;;;;;;;2.10;0.52;;;12.60;86.90;;;;;;5035707;28;20036;-63
2024/03/16 09:05:45;;;;;;;2.10;0.80;;;12.60;86.70;;;;;;5043727;28;20412;-63
2024/03/16 09:08:11;;;;;;;1.60;0.60;;;12.60;86.60;;;;;;5036525;28;20033;-63
2024/03/16 09:10:37;;;;;;;1.33;0.65;;;12.70;86.50;;;;;;5040104;28;20040;-63
2024/03/16 09:13:03;;;;;;;1.67;0.50;;;12.70;86.20;;;;;;5036262;28;20032;-63
2024/03/16 09:15:28;;;;;;;3.13;0.40;;;12.70;86.00;;;;;;5038070;28;20065;-63
2024/03/16 09:17:54;;;;;;;2.75;0.50;;;12.70;85.70;;;;;;5038544;28;20053;-63
2024/03/16 09:20:20;;;;;;;1.65;0.60;;;12.70;85.70;;;;;;5035608;28;20041;-63
2024/03/16 09:22:45;;;;;;;1.80;0.47;;;12.70;85.50;;;;;;5040268;28;20087;-63
2024/03/16 09:25:11;;;;;;;1.08;0.45;;;12.70;85.40;;;;;;5039201;28;20029;-61
2024/03/16 09:27:37;;;;;;;1.10;0.45;;;12.70;85.70;;;;;;5037855;28;20103;-62
2024/03/16 09:30:05;;;;;;;1.20;0.50;;;12.70;85.90;;;;;;5038504;28;20037;-63
2024/03/16 09:32:31;;;;;;;1.23;0.65;;;12.80;86.10;;;;;;5038009;28;20087;-63
2024/03/16 09:34:57;;;;;;;1.55;0.70;;;12.80;86.10;;;;;;5048091;28;20033;-63
2024/03/16 09:37:22;;;;;;;1.20;0.50;;;12.80;85.90;;;;;;5049695;28;20982;-63
2024/03/16 09:39:48;;;;;;;1.50;0.47;;;12.80;85.90;;;;;;5047767;28;20091;-63
2024/03/16 09:42:14;;;;;;;2.53;0.70;;;12.80;86.00;;;;;;5049473;28;20120;-63
2024/03/16 09:44:41;;;;;;;1.50;0.60;;;12.80;86.00;;;;;;5048567;28;20029;-63
2024/03/16 09:47:14;;;;;;;0.75;0.40;;;12.80;86.20;;;;;;5046888;28;20104;-62
2024/03/16 09:49:43;;;;;;;0.82;0.50;;;12.90;86.50;;;;;;5049679;28;20045;-63
2024/03/16 09:52:13;;;;;;;0.77;0.60;;;12.90;86.60;;;;;;5041519;28;20041;-61
2024/03/16 09:54:43;;;;;;;1.05;0.40;;;13.00;86.60;;;;;;5045348;28;20076;-64
2024/03/16 09:57:14;;;;;;;0.77;0.40;;;13.10;86.20;;;;;;5054687;28;20037;-63
2024/03/16 09:59:47;;;;;;;1.02;0.40;;;13.20;86.00;;;;;;5053256;28;20436;-62
2024/03/16 10:02:19;;;;;;;0.90;0.50;;;13.20;85.90;;;;;;5054225;28;20106;-62
2024/03/16 10:04:48;;;;;;;1.45;0.38;;;13.30;85.70;;;;;;5052621;28;20393;-63
2024/03/16 10:07:14;;;;;;;1.05;0.60;;;13.40;86.50;;;;;;5052133;28;20033;-63
2024/03/16 10:09:54;;;;;;;2.75;0.40;;;13.50;85.50;;;;;;5053312;28;20268;-63
2024/03/16 10:12:21;;;;;;;1.67;0.35;;;13.50;84.60;;;;;;5050759;28;20526;-63
2024/03/16 10:15:09;;;;;;;2.08;0.40;;;13.60;84.70;;;;;;5057724;28;20504;-63
2024/03/16 10:17:38;;;;;;;1.35;0.35;;;13.60;84.10;;;;;;5047389;28;20124;-63
2024/03/16 10:20:15;;;;;;;0.75;0.20;;;13.70;84.70;;;;;;5051443;28;20091;-63
2024/03/16 10:22:45;;;;;;;0.88;0.30;;;13.80;85.00;;;;;;5052954;28;20052;-63
2024/03/16 10:25:18;;;;;;;1.42;0.30;;;13.80;84.30;;;;;;5052957;28;20037;-63
2024/03/16 10:27:45;;;;;;;0.98;0.40;;;13.90;83.70;;;;;;5051588;28;20060;-62
2024/03/16 10:30:12;;;;;;;0.43;0.30;;;14.00;83.80;;;;;;5052926;28;20037;-61
2024/03/16 10:32:54;;;;;;;1.13;0.35;;;14.00;83.90;;;;;;5052050;28;20450;-63
2024/03/16 10:35:26;;;;;;;0.93;0.30;;;14.10;83.30;;;;;;5050492;28;20262;-63
2024/03/16 10:37:53;;;;;;;1.48;0.40;;;14.10;83.00;;;;;;5052800;28;20526;-63
2024/03/16 10:40:21;;;;;;;0.90;0.32;;;14.20;82.40;;;;;;5049852;28;20043;-62
2024/03/16 10:42:48;;;;;;;1.08;0.25;;;14.30;82.40;;;;;;5052610;28;20041;-62
2024/03/16 10:45:17;;;;;;;1.92;0.38;;;14.30;82.30;;;;;;5052585;28;20565;-63
2024/03/16 10:47:51;;;;;;;1.20;0.50;;;14.30;82.00;;;;;;5051060;28;20492;-63
2024/03/16 10:50:20;;;;;;;1.13;0.30;;;14.40;81.30;;;;;;5048812;28;20037;-63
2024/03/16 10:52:48;;;;;;;0.50;0.30;;;14.50;81.50;;;;;;5049716;28;20043;-63
2024/03/16 10:55:16;;;;;;;0.63;0.38;;;14.50;81.20;;;;;;5051621;28;20029;-63
2024/03/16 10:57:44;;;;;;;1.08;0.38;;;14.50;80.80;;;;;;5052350;28;20500;-61
2024/03/16 11:00:27;;;;;;;0.80;0.22;;;14.50;80.70;;;;;;5050958;28;20048;-63
2024/03/16 11:03:00;;;;;;;0.90;0.20;;;14.50;80.10;;;;;;5052080;28;20067;-63
2024/03/16 11:05:40;;;;;;;1.10;0.22;;;14.50;79.40;;;;;;5051696;28;20363;-63
2024/03/16 11:08:14;;;;;;;1.17;0.40;;;14.40;79.70;;;;;;5049995;28;20096;-62
2024/03/16 11:10:48;;;;;;;1.13;0.40;;;14.40;79.90;;;;;;5048909;28;20064;-63
2024/03/16 11:13:21;;;;;;;1.15;0.25;;;14.40;80.00;;;;;;5052068;28;20033;-63
2024/03/16 11:15:47;;;;;;;2.38;0.52;;;14.40;80.30;;;;;;5050860;28;20435;-63
2024/03/16 11:18:16;;;;;;;1.25;0.30;;;14.40;80.70;;;;;;5051863;28;20037;-63
2024/03/16 11:20:53;;;;;;;0.93;0.28;;;14.40;80.70;;;;;;5050563;28;20032;-63
2024/03/16 11:23:28;;;;;;;2.30;0.45;;;14.40;81.10;;;;;;5049618;28;20029;-64
2024/03/16 11:25:54;;;;;;;1.27;0.40;;;14.50;81.40;;;;;;5052190;28;20407;-63
2024/03/16 11:28:22;;;;;;;1.92;0.57;;;14.40;81.20;;;;;;5050105;28;20037;-63
2024/03/16 11:30:50;;;;;;;1.63;0.52;;;14.50;80.90;;;;;;5051771;28;20047;-62
2024/03/16 11:33:23;;;;;;;1.65;0.40;;;14.60;80.90;;;;;;5050250;28;20120;-63
2024/03/16 11:35:51;;;;;;;2.42;0.40;;;14.60;80.90;;;;;;5050865;28;20040;-64
2024/03/16 11:38:21;;;;;;;2.00;0.60;;;14.70;81.00;;;;;;5049778;28;20033;-63
2024/03/16 11:40:48;;;;;;;1.52;0.43;;;14.70;81.00;;;;;;5050604;28;20047;-64
2024/03/16 11:43:14;;;;;;;2.40;0.50;;;14.80;81.20;;;;;;5050744;28;20028;-61
2024/03/16 11:45:46;;;;;;;1.67;0.50;;;14.90;81.30;;;;;;5051891;28;20087;-62
2024/03/16 11:48:12;;;;;;;1.45;0.40;;;15.00;81.10;;;;;;5043750;28;20472;-62
2024/03/16 11:50:39;;;;;;;0.60;0.28;;;15.10;80.00;;;;;;5051877;28;20041;-63
2024/03/16 11:53:06;;;;;;;1.15;0.40;;;15.30;79.30;;;;;;5050621;28;20032;-63
2024/03/16 11:55:32;;;;;;;1.17;0.30;;;15.30;78.30;;;;;;5050269;28;20029;-61
2024/03/16 11:58:03;;;;;;;0.90;0.20;;;15.30;78.20;;;;;;5051122;28;20055;-62
2024/03/16 12:00:29;;;;;;;1.85;0.30;;;15.40;78.60;;;;;;5043883;28;20443;-63
2024/03/16 12:02:57;;;;;;;0.50;0.20;;;15.40;77.70;;;;;;5051058;28;20059;-62
2024/03/16 12:05:24;;;;;;;1.48;0.20;;;15.40;77.70;;;;;;5051175;28;21414;-62
2024/03/16 12:07:50;;;;;;;1.13;0.30;;;15.50;78.20;;;;;;5049027;28;20082;-63
2024/03/16 12:10:16;;;;;;;2.10;0.50;;;15.50;77.20;;;;;;5049344;28;20037;-64
2024/03/16 12:12:41;;;;;;;1.15;0.30;;;15.50;76.00;;;;;;5049469;28;20052;-61
2024/03/16 12:15:17;;;;;;;0.82;0.00;;;15.50;76.50;;;;;;5050784;28;20531;-62
2024/03/16 12:17:46;;;;;;;0.32;0.00;;;15.50;70.70;;;;;;5050704;28;20086;-64
2024/03/16 12:20:16;;;;;;;0.57;0.00;;;15.30;71.70;;;;;;5049246;28;20090;-63
2024/03/16 12:22:45;;;;;;;4.05;0.55;;;15.10;72.90;;;;;;5050715;28;20048;-60
2024/03/16 12:25:11;;;;;;;1.02;0.35;;;14.80;72.60;;;;;;5050725;28;20032;-62
2024/03/16 12:27:48;;;;;;;0.70;0.10;;;14.60;75.00;;;;;;5042632;28;20041;-64
2024/03/16 12:30:14;;;;;;;0.40;0.10;;;14.30;77.20;;;;;;5045398;28;20044;-63
2024/03/16 12:32:41;;;;;;;0.95;0.30;;;14.10;78.80;;;;;;5041046;28;20041;-63
2024/03/16 12:35:09;;;;;;;0.57;0.10;;;13.90;80.00;;;;;;5043696;28;20036;-63
2024/03/16 12:37:37;;;;;;;2.88;0.20;;;13.60;81.30;;;;;;5043244;28;20048;-63
2024/03/16 12:40:03;;;;;;;1.45;0.20;;;13.50;82.20;;;;;;5048084;28;20602;-64
2024/03/16 12:42:30;;;;;;;1.27;0.20;;;13.40;83.50;;;;;;5047172;28;20132;-64
2024/03/16 12:44:57;;;;;;;0.28;0.10;;;13.30;84.30;;;;;;5042044;28;20041;-63
2024/03/16 12:47:23;;;;;;;0.32;0.20;;;13.20;85.00;;;;;;5046822;28;20033;-64
2024/03/16 12:49:48;;;;;;;0.50;0.30;;;13.20;85.60;;;;;;5044953;28;20531;-63